sensor_id;sensor_type;location;lat;lon;timestamp;pressure;altitude;pressure_sealevel;temperature;humidity
59971;BME280;45825;45.434;9.116;2023-03-04T00:01:39;100542.97;;;10.24;73.87
59971;BME280;45825;45.434;9.116;2023-03-04T00:04:04;100542.28;;;10.20;74.21
59971;BME280;45825;45.434;9.116;2023-03-04T00:06:29;100547.81;;;10.14;74.42
59971;BME280;45825;45.434;9.116;2023-03-04T00:08:55;100546.50;;;10.05;74.46
59971;BME280;45825;45.434;9.116;2023-03-04T00:11:20;100544.88;;;10.03;74.88
59971;BME280;45825;45.434;9.116;2023-03-04T00:13:46;100548.03;;;10.10;74.18
59971;BME280;45825;45.434;9.116;2023-03-04T00:16:11;100549.69;;;10.12;74.93
59971;BME280;45825;45.434;9.116;2023-03-04T00:18:37;100554.00;;;10.13;74.74
59971;BME280;45825;45.434;9.116;2023-03-04T00:21:02;100552.16;;;10.15;74.96
59971;BME280;45825;45.434;9.116;2023-03-04T00:23:28;100544.03;;;10.20;75.18
59971;BME280;45825;45.434;9.116;2023-03-04T00:25:53;100549.63;;;10.31;75.35
59971;BME280;45825;45.434;9.116;2023-03-04T00:28:18;100550.72;;;10.27;75.07
59971;BME280;45825;45.434;9.116;2023-03-04T00:30:44;100553.16;;;10.13;74.97
59971;BME280;45825;45.434;9.116;2023-03-04T00:33:09;100547.22;;;10.09;75.07
59971;BME280;45825;45.434;9.116;2023-03-04T00:35:34;100547.34;;;10.06;75.22
59971;BME280;45825;45.434;9.116;2023-03-04T00:38:00;100544.44;;;10.12;74.53
59971;BME280;45825;45.434;9.116;2023-03-04T00:40:25;100544.81;;;10.22;74.60
59971;BME280;45825;45.434;9.116;2023-03-04T00:42:50;100540.97;;;10.29;74.74
59971;BME280;45825;45.434;9.116;2023-03-04T00:45:16;100541.50;;;10.36;74.14
59971;BME280;45825;45.434;9.116;2023-03-04T00:47:41;100542.44;;;10.35;74.76
59971;BME280;45825;45.434;9.116;2023-03-04T00:50:07;100544.53;;;10.28;74.22
59971;BME280;45825;45.434;9.116;2023-03-04T00:52:32;100542.06;;;10.25;74.57
59971;BME280;45825;45.434;9.116;2023-03-04T00:54:58;100548.38;;;10.21;74.41
59971;BME280;45825;45.434;9.116;2023-03-04T00:57:23;100546.59;;;10.22;75.53
59971;BME280;45825;45.434;9.116;2023-03-04T00:59:48;100552.84;;;10.19;74.94
59971;BME280;45825;45.434;9.116;2023-03-04T01:02:14;100547.66;;;10.17;74.77
59971;BME280;45825;45.434;9.116;2023-03-04T01:04:39;100545.25;;;10.13;75.63
59971;BME280;45825;45.434;9.116;2023-03-04T01:07:06;100540.94;;;10.12;75.55
59971;BME280;45825;45.434;9.116;2023-03-04T01:09:31;100539.16;;;10.12;75.39
59971;BME280;45825;45.434;9.116;2023-03-04T01:11:57;100534.75;;;10.13;74.89
59971;BME280;45825;45.434;9.116;2023-03-04T01:14:23;100533.75;;;10.15;75.78
59971;BME280;45825;45.434;9.116;2023-03-04T01:16:48;100529.66;;;10.10;76.93
59971;BME280;45825;45.434;9.116;2023-03-04T01:19:14;100532.28;;;10.10;76.31
59971;BME280;45825;45.434;9.116;2023-03-04T01:21:39;100526.25;;;10.07;76.15
59971;BME280;45825;45.434;9.116;2023-03-04T01:24:05;100525.69;;;10.01;77.21
59971;BME280;45825;45.434;9.116;2023-03-04T01:26:30;100530.25;;;9.97;77.84
59971;BME280;45825;45.434;9.116;2023-03-04T01:28:55;100528.72;;;9.93;77.66
59971;BME280;45825;45.434;9.116;2023-03-04T01:31:21;100524.38;;;9.92;77.49
59971;BME280;45825;45.434;9.116;2023-03-04T01:33:46;100524.44;;;9.90;77.18
59971;BME280;45825;45.434;9.116;2023-03-04T01:36:11;100531.47;;;9.90;78.22
59971;BME280;45825;45.434;9.116;2023-03-04T01:38:37;100523.97;;;9.82;78.35
59971;BME280;45825;45.434;9.116;2023-03-04T01:41:02;100523.19;;;9.80;79.13
59971;BME280;45825;45.434;9.116;2023-03-04T01:43:29;100534.97;;;9.90;78.71
59971;BME280;45825;45.434;9.116;2023-03-04T01:45:55;100526.38;;;9.87;78.29
59971;BME280;45825;45.434;9.116;2023-03-04T01:48:26;100527.44;;;9.83;78.75
59971;BME280;45825;45.434;9.116;2023-03-04T01:50:52;100520.06;;;9.72;78.56
59971;BME280;45825;45.434;9.116;2023-03-04T01:53:26;100516.94;;;9.63;79.96
59971;BME280;45825;45.434;9.116;2023-03-04T01:55:55;100513.03;;;9.53;81.08
59971;BME280;45825;45.434;9.116;2023-03-04T01:58:24;100513.34;;;9.47;81.17
59971;BME280;45825;45.434;9.116;2023-03-04T02:00:51;100514.28;;;9.27;82.03
59971;BME280;45825;45.434;9.116;2023-03-04T02:03:17;100507.41;;;9.24;82.72
59971;BME280;45825;45.434;9.116;2023-03-04T02:05:48;100499.56;;;9.22;83.38
59971;BME280;45825;45.434;9.116;2023-03-04T02:08:15;100505.28;;;9.32;82.72
59971;BME280;45825;45.434;9.116;2023-03-04T02:10:42;100503.00;;;9.44;81.88
59971;BME280;45825;45.434;9.116;2023-03-04T02:13:08;100504.69;;;9.45;81.40
59971;BME280;45825;45.434;9.116;2023-03-04T02:15:34;100497.66;;;9.45;81.28
59971;BME280;45825;45.434;9.116;2023-03-04T02:18:00;100501.84;;;9.49;81.01
59971;BME280;45825;45.434;9.116;2023-03-04T02:23:06;100509.59;;;9.33;82.08
59971;BME280;45825;45.434;9.116;2023-03-04T02:25:38;100495.03;;;9.26;81.95
59971;BME280;45825;45.434;9.116;2023-03-04T02:28:06;100503.84;;;9.25;81.95
59971;BME280;45825;45.434;9.116;2023-03-04T02:30:31;100504.78;;;9.24;82.75
59971;BME280;45825;45.434;9.116;2023-03-04T02:32:57;100503.63;;;9.30;82.66
59971;BME280;45825;45.434;9.116;2023-03-04T02:35:22;100504.59;;;9.46;81.82
59971;BME280;45825;45.434;9.116;2023-03-04T02:37:47;100500.59;;;9.39;81.63
59971;BME280;45825;45.434;9.116;2023-03-04T02:40:22;100501.22;;;9.44;81.72
59971;BME280;45825;45.434;9.116;2023-03-04T02:42:49;100501.06;;;9.47;81.29
59971;BME280;45825;45.434;9.116;2023-03-04T02:45:31;100504.69;;;9.45;81.70
59971;BME280;45825;45.434;9.116;2023-03-04T02:47:59;100508.78;;;9.31;83.26
59971;BME280;45825;45.434;9.116;2023-03-04T02:50:25;100502.97;;;9.25;83.51
59971;BME280;45825;45.434;9.116;2023-03-04T02:52:52;100503.78;;;9.27;83.46
59971;BME280;45825;45.434;9.116;2023-03-04T02:55:17;100496.59;;;9.30;83.40
59971;BME280;45825;45.434;9.116;2023-03-04T02:57:42;100494.09;;;9.46;82.73
59971;BME280;45825;45.434;9.116;2023-03-04T03:00:08;100503.91;;;9.43;82.07
59971;BME280;45825;45.434;9.116;2023-03-04T03:02:35;100502.72;;;9.31;82.80
59971;BME280;45825;45.434;9.116;2023-03-04T03:05:00;100501.78;;;9.32;82.95
59971;BME280;45825;45.434;9.116;2023-03-04T03:07:25;100498.88;;;9.38;82.44
59971;BME280;45825;45.434;9.116;2023-03-04T03:09:51;100498.59;;;9.44;81.95
59971;BME280;45825;45.434;9.116;2023-03-04T03:12:16;100490.19;;;9.36;82.50
59971;BME280;45825;45.434;9.116;2023-03-04T03:14:41;100486.66;;;9.37;82.13
59971;BME280;45825;45.434;9.116;2023-03-04T03:17:06;100492.16;;;9.32;82.90
59971;BME280;45825;45.434;9.116;2023-03-04T03:19:32;100486.03;;;9.32;82.94
59971;BME280;45825;45.434;9.116;2023-03-04T03:21:57;100485.25;;;9.30;82.38
59971;BME280;45825;45.434;9.116;2023-03-04T03:24:22;100489.63;;;9.29;82.88
59971;BME280;45825;45.434;9.116;2023-03-04T03:26:48;100488.31;;;9.20;83.01
59971;BME280;45825;45.434;9.116;2023-03-04T03:29:13;100478.28;;;9.09;84.47
59971;BME280;45825;45.434;9.116;2023-03-04T03:31:38;100480.22;;;9.06;84.89
59971;BME280;45825;45.434;9.116;2023-03-04T03:34:04;100479.28;;;9.07;85.08
59971;BME280;45825;45.434;9.116;2023-03-04T03:36:29;100480.69;;;8.95;86.31
59971;BME280;45825;45.434;9.116;2023-03-04T03:38:54;100482.59;;;8.91;86.98
59971;BME280;45825;45.434;9.116;2023-03-04T03:41:20;100479.25;;;8.88;86.15
59971;BME280;45825;45.434;9.116;2023-03-04T03:43:45;100485.78;;;8.79;87.75
59971;BME280;45825;45.434;9.116;2023-03-04T03:46:10;100480.31;;;8.84;87.44
59971;BME280;45825;45.434;9.116;2023-03-04T03:48:36;100484.25;;;8.94;87.08
59971;BME280;45825;45.434;9.116;2023-03-04T03:51:01;100478.13;;;8.93;87.44
59971;BME280;45825;45.434;9.116;2023-03-04T03:53:26;100474.38;;;8.99;86.03
59971;BME280;45825;45.434;9.116;2023-03-04T03:55:51;100477.91;;;8.98;86.17
59971;BME280;45825;45.434;9.116;2023-03-04T03:58:17;100473.69;;;8.96;85.77
59971;BME280;45825;45.434;9.116;2023-03-04T04:00:42;100478.78;;;8.79;86.25
59971;BME280;45825;45.434;9.116;2023-03-04T04:03:11;100474.50;;;8.77;87.92
59971;BME280;45825;45.434;9.116;2023-03-04T04:05:38;100476.16;;;8.79;86.22
59971;BME280;45825;45.434;9.116;2023-03-04T04:08:04;100469.09;;;8.80;85.84
59971;BME280;45825;45.434;9.116;2023-03-04T04:10:29;100465.56;;;8.81;85.89
59971;BME280;45825;45.434;9.116;2023-03-04T04:12:54;100469.19;;;8.78;86.05
59971;BME280;45825;45.434;9.116;2023-03-04T04:15:20;100462.72;;;8.66;85.71
59971;BME280;45825;45.434;9.116;2023-03-04T04:17:45;100467.81;;;8.70;86.03
59971;BME280;45825;45.434;9.116;2023-03-04T04:20:10;100459.53;;;8.79;84.36
59971;BME280;45825;45.434;9.116;2023-03-04T04:22:36;100457.56;;;8.84;83.13
59971;BME280;45825;45.434;9.116;2023-03-04T04:25:01;100460.09;;;8.86;83.08
59971;BME280;45825;45.434;9.116;2023-03-04T04:27:26;100463.81;;;8.82;83.55
59971;BME280;45825;45.434;9.116;2023-03-04T04:29:52;100463.84;;;8.80;84.06
59971;BME280;45825;45.434;9.116;2023-03-04T04:32:17;100471.94;;;8.75;83.83
59971;BME280;45825;45.434;9.116;2023-03-04T04:34:42;100468.38;;;8.76;83.94
59971;BME280;45825;45.434;9.116;2023-03-04T04:37:08;100462.97;;;8.60;85.08
59971;BME280;45825;45.434;9.116;2023-03-04T04:39:33;100464.91;;;8.57;85.57
59971;BME280;45825;45.434;9.116;2023-03-04T04:41:58;100465.69;;;8.59;85.29
59971;BME280;45825;45.434;9.116;2023-03-04T04:44:24;100467.56;;;8.55;85.08
59971;BME280;45825;45.434;9.116;2023-03-04T04:46:49;100472.13;;;8.50;86.06
59971;BME280;45825;45.434;9.116;2023-03-04T04:49:14;100466.25;;;8.45;85.41
59971;BME280;45825;45.434;9.116;2023-03-04T04:51:39;100463.88;;;8.38;86.32
59971;BME280;45825;45.434;9.116;2023-03-04T04:54:05;100462.44;;;8.31;86.87
59971;BME280;45825;45.434;9.116;2023-03-04T04:56:31;100466.63;;;8.35;86.62
59971;BME280;45825;45.434;9.116;2023-03-04T04:58:59;100469.44;;;8.31;86.97
59971;BME280;45825;45.434;9.116;2023-03-04T05:01:25;100461.88;;;8.24;86.95
59971;BME280;45825;45.434;9.116;2023-03-04T05:03:51;100465.47;;;8.22;87.67
59971;BME280;45825;45.434;9.116;2023-03-04T05:06:20;100467.09;;;8.24;87.72
59971;BME280;45825;45.434;9.116;2023-03-04T05:08:46;100464.72;;;8.18;87.92
59971;BME280;45825;45.434;9.116;2023-03-04T05:11:12;100469.34;;;8.13;87.75
59971;BME280;45825;45.434;9.116;2023-03-04T05:13:38;100465.06;;;8.10;88.11
59971;BME280;45825;45.434;9.116;2023-03-04T05:16:03;100468.28;;;8.17;88.59
59971;BME280;45825;45.434;9.116;2023-03-04T05:18:29;100463.56;;;8.25;87.87
59971;BME280;45825;45.434;9.116;2023-03-04T05:20:57;100473.75;;;8.11;88.06
59971;BME280;45825;45.434;9.116;2023-03-04T05:23:24;100471.66;;;7.99;88.37
59971;BME280;45825;45.434;9.116;2023-03-04T05:25:50;100470.53;;;8.04;88.65
59971;BME280;45825;45.434;9.116;2023-03-04T05:28:16;100472.94;;;8.10;88.57
59971;BME280;45825;45.434;9.116;2023-03-04T05:30:43;100469.63;;;8.05;88.32
59971;BME280;45825;45.434;9.116;2023-03-04T05:33:09;100478.72;;;7.96;88.54
59971;BME280;45825;45.434;9.116;2023-03-04T05:35:35;100469.50;;;7.88;89.48
59971;BME280;45825;45.434;9.116;2023-03-04T05:38:03;100472.03;;;7.89;89.16
59971;BME280;45825;45.434;9.116;2023-03-04T05:40:29;100472.16;;;7.86;89.49
59971;BME280;45825;45.434;9.116;2023-03-04T05:42:54;100472.94;;;7.88;88.96
59971;BME280;45825;45.434;9.116;2023-03-04T05:45:21;100475.91;;;8.01;88.05
59971;BME280;45825;45.434;9.116;2023-03-04T05:47:46;100472.00;;;8.11;87.55
59971;BME280;45825;45.434;9.116;2023-03-04T05:50:11;100474.97;;;8.24;86.68
59971;BME280;45825;45.434;9.116;2023-03-04T05:52:37;100469.78;;;8.23;86.24
59971;BME280;45825;45.434;9.116;2023-03-04T05:55:02;100480.41;;;8.20;86.89
59971;BME280;45825;45.434;9.116;2023-03-04T05:57:28;100481.13;;;8.03;87.09
59971;BME280;45825;45.434;9.116;2023-03-04T05:59:53;100484.03;;;7.95;87.93
59971;BME280;45825;45.434;9.116;2023-03-04T06:02:18;100481.06;;;7.82;88.53
59971;BME280;45825;45.434;9.116;2023-03-04T06:04:43;100488.56;;;7.69;89.55
59971;BME280;45825;45.434;9.116;2023-03-04T06:07:09;100499.44;;;7.58;90.58
59971;BME280;45825;45.434;9.116;2023-03-04T06:09:34;100493.13;;;7.64;91.12
59971;BME280;45825;45.434;9.116;2023-03-04T06:11:59;100500.50;;;7.76;91.33
59971;BME280;45825;45.434;9.116;2023-03-04T06:14:25;100499.88;;;7.92;89.96
59971;BME280;45825;45.434;9.116;2023-03-04T06:16:50;100501.25;;;8.01;89.37
59971;BME280;45825;45.434;9.116;2023-03-04T06:19:15;100496.38;;;8.14;88.53
59971;BME280;45825;45.434;9.116;2023-03-04T06:21:41;100506.63;;;8.20;88.07
59971;BME280;45825;45.434;9.116;2023-03-04T06:24:06;100505.03;;;8.16;87.48
59971;BME280;45825;45.434;9.116;2023-03-04T06:26:31;100509.63;;;8.10;87.44
59971;BME280;45825;45.434;9.116;2023-03-04T06:28:57;100507.84;;;8.11;87.72
59971;BME280;45825;45.434;9.116;2023-03-04T06:31:22;100511.47;;;8.08;87.30
59971;BME280;45825;45.434;9.116;2023-03-04T06:33:47;100518.13;;;8.16;87.35
59971;BME280;45825;45.434;9.116;2023-03-04T06:36:13;100507.13;;;8.07;88.33
59971;BME280;45825;45.434;9.116;2023-03-04T06:38:38;100506.88;;;8.14;88.65
59971;BME280;45825;45.434;9.116;2023-03-04T06:41:11;100517.75;;;8.25;87.19
59971;BME280;45825;45.434;9.116;2023-03-04T06:43:37;100523.69;;;8.30;86.87
59971;BME280;45825;45.434;9.116;2023-03-04T06:46:04;100519.47;;;8.26;86.20
59971;BME280;45825;45.434;9.116;2023-03-04T06:48:30;100521.88;;;8.31;86.48
59971;BME280;45825;45.434;9.116;2023-03-04T06:50:55;100525.38;;;8.31;86.85
59971;BME280;45825;45.434;9.116;2023-03-04T06:53:20;100527.31;;;8.26;86.98
59971;BME280;45825;45.434;9.116;2023-03-04T06:55:46;100526.16;;;8.33;86.12
59971;BME280;45825;45.434;9.116;2023-03-04T06:58:12;100525.16;;;8.15;86.77
59971;BME280;45825;45.434;9.116;2023-03-04T07:00:37;100522.16;;;8.24;85.91
59971;BME280;45825;45.434;9.116;2023-03-04T07:03:02;100533.47;;;8.25;86.20
59971;BME280;45825;45.434;9.116;2023-03-04T07:05:27;100531.84;;;8.22;87.34
59971;BME280;45825;45.434;9.116;2023-03-04T07:07:53;100536.69;;;8.32;86.31
59971;BME280;45825;45.434;9.116;2023-03-04T07:10:21;100535.47;;;8.41;85.42
59971;BME280;45825;45.434;9.116;2023-03-04T07:12:47;100531.03;;;8.43;84.54
59971;BME280;45825;45.434;9.116;2023-03-04T07:15:12;100535.41;;;8.42;84.48
59971;BME280;45825;45.434;9.116;2023-03-04T07:17:37;100532.72;;;8.44;84.30
59971;BME280;45825;45.434;9.116;2023-03-04T07:20:03;100535.81;;;8.53;83.90
59971;BME280;45825;45.434;9.116;2023-03-04T07:22:28;100539.84;;;8.62;83.49
59971;BME280;45825;45.434;9.116;2023-03-04T07:24:54;100534.72;;;8.59;82.62
59971;BME280;45825;45.434;9.116;2023-03-04T07:27:19;100538.84;;;8.65;83.85
59971;BME280;45825;45.434;9.116;2023-03-04T07:29:45;100539.84;;;8.62;82.62
59971;BME280;45825;45.434;9.116;2023-03-04T07:32:10;100540.44;;;8.69;82.76
59971;BME280;45825;45.434;9.116;2023-03-04T07:34:35;100538.53;;;8.73;82.75
59971;BME280;45825;45.434;9.116;2023-03-04T07:37:01;100539.50;;;8.70;82.05
59971;BME280;45825;45.434;9.116;2023-03-04T07:39:26;100540.63;;;8.85;81.95
59971;BME280;45825;45.434;9.116;2023-03-04T07:41:51;100538.19;;;8.80;82.21
59971;BME280;45825;45.434;9.116;2023-03-04T07:44:17;100537.19;;;8.83;81.85
59971;BME280;45825;45.434;9.116;2023-03-04T07:46:42;100536.78;;;8.92;81.07
59971;BME280;45825;45.434;9.116;2023-03-04T07:49:07;100543.69;;;8.95;80.11
59971;BME280;45825;45.434;9.116;2023-03-04T07:51:33;100535.59;;;9.00;80.48
59971;BME280;45825;45.434;9.116;2023-03-04T07:53:59;100528.81;;;8.96;79.68
59971;BME280;45825;45.434;9.116;2023-03-04T07:56:27;100535.66;;;8.98;79.49
59971;BME280;45825;45.434;9.116;2023-03-04T07:58:54;100531.13;;;9.02;79.77
59971;BME280;45825;45.434;9.116;2023-03-04T08:01:34;100533.97;;;8.97;80.05
59971;BME280;45825;45.434;9.116;2023-03-04T08:04:01;100538.09;;;9.03;80.13
59971;BME280;45825;45.434;9.116;2023-03-04T08:06:28;100535.53;;;9.01;80.52
59971;BME280;45825;45.434;9.116;2023-03-04T08:09:05;100543.69;;;8.95;81.32
59971;BME280;45825;45.434;9.116;2023-03-04T08:11:32;100543.75;;;8.93;81.57
59971;BME280;45825;45.434;9.116;2023-03-04T08:13:57;100545.75;;;9.07;81.28
59971;BME280;45825;45.434;9.116;2023-03-04T08:16:24;100541.06;;;9.14;81.96
59971;BME280;45825;45.434;9.116;2023-03-04T08:18:52;100543.00;;;9.11;81.71
59971;BME280;45825;45.434;9.116;2023-03-04T08:21:20;100542.56;;;9.20;82.27
59971;BME280;45825;45.434;9.116;2023-03-04T08:23:46;100538.97;;;9.22;82.39
59971;BME280;45825;45.434;9.116;2023-03-04T08:26:17;100540.50;;;9.07;82.73
59971;BME280;45825;45.434;9.116;2023-03-04T08:28:43;100544.38;;;9.19;82.68
59971;BME280;45825;45.434;9.116;2023-03-04T08:31:11;100545.41;;;9.15;81.62
59971;BME280;45825;45.434;9.116;2023-03-04T08:33:36;100541.88;;;9.16;82.24
59971;BME280;45825;45.434;9.116;2023-03-04T08:36:02;100537.69;;;9.31;81.73
59971;BME280;45825;45.434;9.116;2023-03-04T08:38:28;100546.16;;;9.38;80.83
59971;BME280;45825;45.434;9.116;2023-03-04T08:40:56;100536.00;;;9.49;81.04
59971;BME280;45825;45.434;9.116;2023-03-04T08:43:22;100541.81;;;9.56;80.82
59971;BME280;45825;45.434;9.116;2023-03-04T08:45:48;100535.69;;;9.56;80.37
59971;BME280;45825;45.434;9.116;2023-03-04T08:48:14;100526.56;;;9.64;80.07
59971;BME280;45825;45.434;9.116;2023-03-04T08:50:40;100526.31;;;9.69;79.10
59971;BME280;45825;45.434;9.116;2023-03-04T08:53:05;100531.34;;;9.74;78.69
59971;BME280;45825;45.434;9.116;2023-03-04T08:55:31;100529.97;;;9.84;79.53
59971;BME280;45825;45.434;9.116;2023-03-04T08:57:56;100525.22;;;9.92;79.36
59971;BME280;45825;45.434;9.116;2023-03-04T09:00:22;100526.53;;;10.01;78.53
59971;BME280;45825;45.434;9.116;2023-03-04T09:02:48;100522.06;;;10.03;78.05
59971;BME280;45825;45.434;9.116;2023-03-04T09:05:13;100525.69;;;10.18;78.01
59971;BME280;45825;45.434;9.116;2023-03-04T09:07:38;100516.69;;;10.24;77.70
59971;BME280;45825;45.434;9.116;2023-03-04T09:10:04;100518.00;;;10.33;77.48
59971;BME280;45825;45.434;9.116;2023-03-04T09:12:30;100521.44;;;10.33;77.34
59971;BME280;45825;45.434;9.116;2023-03-04T09:14:55;100519.31;;;10.42;76.66
59971;BME280;45825;45.434;9.116;2023-03-04T09:17:20;100517.16;;;10.50;75.86
59971;BME280;45825;45.434;9.116;2023-03-04T09:19:46;100509.50;;;10.63;76.00
59971;BME280;45825;45.434;9.116;2023-03-04T09:22:11;100508.31;;;10.69;75.39
59971;BME280;45825;45.434;9.116;2023-03-04T09:24:36;100511.50;;;10.58;74.88
59971;BME280;45825;45.434;9.116;2023-03-04T09:27:02;100506.88;;;10.63;74.65
59971;BME280;45825;45.434;9.116;2023-03-04T09:29:27;100505.53;;;10.72;73.73
59971;BME280;45825;45.434;9.116;2023-03-04T09:31:53;100500.97;;;10.75;73.63
59971;BME280;45825;45.434;9.116;2023-03-04T09:34:18;100500.91;;;10.93;73.33
59971;BME280;45825;45.434;9.116;2023-03-04T09:36:43;100502.03;;;11.05;72.70
59971;BME280;45825;45.434;9.116;2023-03-04T09:39:09;100497.97;;;11.15;72.27
59971;BME280;45825;45.434;9.116;2023-03-04T09:41:46;100497.47;;;11.25;72.42
59971;BME280;45825;45.434;9.116;2023-03-04T09:44:14;100503.69;;;11.40;71.98
59971;BME280;45825;45.434;9.116;2023-03-04T09:46:42;100500.19;;;11.55;72.06
59971;BME280;45825;45.434;9.116;2023-03-04T09:49:10;100498.25;;;11.59;71.73
59971;BME280;45825;45.434;9.116;2023-03-04T09:51:47;100492.28;;;11.71;71.09
59971;BME280;45825;45.434;9.116;2023-03-04T09:54:41;100501.53;;;11.95;70.58
59971;BME280;45825;45.434;9.116;2023-03-04T09:57:21;100496.69;;;12.03;69.96
59971;BME280;45825;45.434;9.116;2023-03-04T10:05:40;100480.78;;;12.50;67.37
59971;BME280;45825;45.434;9.116;2023-03-04T10:11:17;100473.16;;;12.89;64.31
59971;BME280;45825;45.434;9.116;2023-03-04T10:16:18;100463.03;;;13.24;62.09
59971;BME280;45825;45.434;9.116;2023-03-04T10:19:02;100463.53;;;13.59;61.48
59971;BME280;45825;45.434;9.116;2023-03-04T10:21:38;100461.75;;;13.45;60.03
59971;BME280;45825;45.434;9.116;2023-03-04T10:24:20;100462.03;;;13.82;58.54
59971;BME280;45825;45.434;9.116;2023-03-04T10:27:06;100468.03;;;14.50;57.36
59971;BME280;45825;45.434;9.116;2023-03-04T10:29:36;100455.34;;;14.82;55.16
59971;BME280;45825;45.434;9.116;2023-03-04T10:32:01;100444.22;;;15.51;54.30
59971;BME280;45825;45.434;9.116;2023-03-04T10:34:26;100447.75;;;16.12;52.79
59971;BME280;45825;45.434;9.116;2023-03-04T10:37:02;100447.69;;;16.59;50.51
59971;BME280;45825;45.434;9.116;2023-03-04T10:39:31;100432.72;;;16.92;49.85
59971;BME280;45825;45.434;9.116;2023-03-04T10:41:59;100431.66;;;17.06;47.94
59971;BME280;45825;45.434;9.116;2023-03-04T10:44:25;100427.06;;;17.52;47.62
59971;BME280;45825;45.434;9.116;2023-03-04T10:46:53;100428.56;;;18.20;45.24
59971;BME280;45825;45.434;9.116;2023-03-04T10:49:19;100420.66;;;17.97;45.38
59971;BME280;45825;45.434;9.116;2023-03-04T10:51:53;100423.56;;;18.06;45.48
59971;BME280;45825;45.434;9.116;2023-03-04T10:54:23;100412.47;;;19.35;43.65
59971;BME280;45825;45.434;9.116;2023-03-04T10:56:57;100420.03;;;19.89;42.37
59971;BME280;45825;45.434;9.116;2023-03-04T11:04:50;100394.63;;;21.26;39.63
59971;BME280;45825;45.434;9.116;2023-03-04T11:07:17;100393.59;;;20.81;38.31
59971;BME280;45825;45.434;9.116;2023-03-04T11:09:43;100386.22;;;21.21;38.74
59971;BME280;45825;45.434;9.116;2023-03-04T11:12:14;100386.38;;;21.56;37.53
59971;BME280;45825;45.434;9.116;2023-03-04T11:17:27;100377.69;;;23.11;35.17
59971;BME280;45825;45.434;9.116;2023-03-04T11:20:35;100379.19;;;23.05;34.95
59971;BME280;45825;45.434;9.116;2023-03-04T11:22:43;100373.72;;;22.72;35.05
59971;BME280;45825;45.434;9.116;2023-03-04T11:25:35;100366.13;;;24.02;33.69
59971;BME280;45825;45.434;9.116;2023-03-04T11:28:21;100358.44;;;24.87;32.45
59971;BME280;45825;45.434;9.116;2023-03-04T11:30:52;100359.88;;;24.26;32.59
59971;BME280;45825;45.434;9.116;2023-03-04T11:36:06;100343.28;;;24.62;31.98
59971;BME280;45825;45.434;9.116;2023-03-04T11:38:38;100337.38;;;24.99;31.49
59971;BME280;45825;45.434;9.116;2023-03-04T11:41:08;100343.28;;;23.89;33.18
59971;BME280;45825;45.434;9.116;2023-03-04T11:56:50;100310.59;;;24.82;30.55
59971;BME280;45825;45.434;9.116;2023-03-04T11:59:27;100310.91;;;24.47;31.45
59971;BME280;45825;45.434;9.116;2023-03-04T12:12:34;100283.22;;;26.97;26.60
59971;BME280;45825;45.434;9.116;2023-03-04T12:21:16;100268.63;;;28.06;25.12
59971;BME280;45825;45.434;9.116;2023-03-04T12:38:17;100229.41;;;26.96;25.85
59971;BME280;45825;45.434;9.116;2023-03-04T12:43:38;100221.88;;;29.08;23.60
59971;BME280;45825;45.434;9.116;2023-03-04T12:48:44;100218.03;;;27.00;26.14
59971;BME280;45825;45.434;9.116;2023-03-04T12:54:45;100200.97;;;29.42;22.43
59971;BME280;45825;45.434;9.116;2023-03-04T12:59:46;100187.06;;;29.18;22.68
59971;BME280;45825;45.434;9.116;2023-03-04T13:16:45;100171.22;;;28.41;22.77
59971;BME280;45825;45.434;9.116;2023-03-04T13:19:49;100169.28;;;27.72;23.52
59971;BME280;45825;45.434;9.116;2023-03-04T13:24:52;100161.66;;;28.58;23.21
59971;BME280;45825;45.434;9.116;2023-03-04T13:41:21;100150.25;;;25.41;27.93
59971;BME280;45825;45.434;9.116;2023-03-04T13:51:34;100141.69;;;26.56;26.92
59971;BME280;45825;45.434;9.116;2023-03-04T13:54:25;100137.44;;;26.90;26.65
59971;BME280;45825;45.434;9.116;2023-03-04T14:02:22;100135.06;;;25.63;29.93
59971;BME280;45825;45.434;9.116;2023-03-04T14:12:19;100119.03;;;26.29;26.03
59971;BME280;45825;45.434;9.116;2023-03-04T14:14:50;100119.78;;;25.86;26.86
59971;BME280;45825;45.434;9.116;2023-03-04T14:17:20;100114.84;;;26.48;25.77
59971;BME280;45825;45.434;9.116;2023-03-04T14:19:47;100107.00;;;26.82;25.72
59971;BME280;45825;45.434;9.116;2023-03-04T14:22:23;100105.22;;;26.39;26.18
59971;BME280;45825;45.434;9.116;2023-03-04T14:27:24;100096.25;;;25.58;26.55
59971;BME280;45825;45.434;9.116;2023-03-04T14:30:00;100104.63;;;24.79;28.39
59971;BME280;45825;45.434;9.116;2023-03-04T14:32:26;100094.53;;;24.81;27.56
59971;BME280;45825;45.434;9.116;2023-03-04T14:35:21;100091.75;;;25.65;29.33
59971;BME280;45825;45.434;9.116;2023-03-04T14:37:48;100096.28;;;24.51;28.10
59971;BME280;45825;45.434;9.116;2023-03-04T14:40:25;100087.03;;;24.92;28.07
59971;BME280;45825;45.434;9.116;2023-03-04T14:43:04;100085.38;;;25.21;28.18
59971;BME280;45825;45.434;9.116;2023-03-04T14:45:32;100081.56;;;24.38;29.05
59971;BME280;45825;45.434;9.116;2023-03-04T14:48:04;100072.53;;;24.78;27.77
59971;BME280;45825;45.434;9.116;2023-03-04T14:50:31;100077.38;;;24.97;29.12
59971;BME280;45825;45.434;9.116;2023-03-04T14:55:31;100058.34;;;25.29;27.66
59971;BME280;45825;45.434;9.116;2023-03-04T14:58:07;100060.47;;;23.80;29.06
59971;BME280;45825;45.434;9.116;2023-03-04T15:00:38;100054.06;;;23.58;29.30
59971;BME280;45825;45.434;9.116;2023-03-04T15:03:24;100052.72;;;23.54;29.64
59971;BME280;45825;45.434;9.116;2023-03-04T15:05:51;100059.16;;;22.13;31.43
59971;BME280;45825;45.434;9.116;2023-03-04T15:08:23;100054.63;;;22.05;31.59
59971;BME280;45825;45.434;9.116;2023-03-04T15:10:53;100065.22;;;20.76;34.23
59971;BME280;45825;45.434;9.116;2023-03-04T15:13:39;100061.09;;;19.55;36.18
59971;BME280;45825;45.434;9.116;2023-03-04T15:16:05;100053.06;;;18.79;36.96